Time;durP1;ratioP1;P1;durP2;ratioP2;P2;SDS_P1;SDS_P2;PMS_P1;PMS_P2;Temp;Humidity;BMP_temperature;BMP_pressure;BME280_temperature;BME280_humidity;BME280_pressure;Samples;Min_cycle;Max_cycle;Signal;HPM_P1;HPM_P2
2023/11/12 00:04:28;;;;;;;2.35;1.48;;;;;;;5.59;100.00;150073.69;10340606;28;20417;-72
2023/11/12 00:09:30;;;;;;;2.25;1.10;;;;;;;5.62;100.00;150081.38;10324577;28;20054;-71
2023/11/12 00:14:32;;;;;;;1.98;1.10;;;;;;;5.74;99.13;150112.25;10341837;28;20050;-71
2023/11/12 00:19:33;;;;;;;1.20;1.10;;;;;;;5.76;99.37;150118.72;10341690;28;20081;-72
2023/11/12 00:24:35;;;;;;;1.50;1.20;;;;;;;5.68;99.99;150098.13;10301343;28;1188282;-71
2023/11/12 00:29:37;;;;;;;1.20;1.10;;;;;;;5.76;98.42;150117.44;10342561;28;20065;-71
2023/11/12 00:34:39;;;;;;;0.90;0.90;;;;;;;5.70;98.61;150103.25;10341499;28;20038;-72
2023/11/12 00:39:41;;;;;;;1.25;1.15;;;;;;;5.78;97.92;150122.56;10342026;28;20129;-71
2023/11/12 00:44:43;;;;;;;1.55;1.20;;;;;;;5.85;95.93;150139.31;10342908;28;20104;-71
2023/11/12 00:49:45;;;;;;;1.30;1.10;;;;;;;5.71;96.80;150104.53;10340796;28;20124;-72
2023/11/12 00:54:47;;;;;;;2.03;1.27;;;;;;;5.66;98.18;150091.66;10341281;28;20061;-72
2023/11/12 00:59:49;;;;;;;3.65;1.48;;;;;;;5.59;97.19;150073.69;10341226;28;20042;-70
2023/11/12 01:04:52;;;;;;;1.42;1.25;;;;;;;5.68;96.31;150098.13;10340001;28;20047;-71
2023/11/12 01:09:54;;;;;;;2.65;1.10;;;;;;;5.62;96.50;150082.66;10324193;28;20054;-72
2023/11/12 01:14:56;;;;;;;1.70;1.30;;;;;;;5.61;95.90;150080.09;10341394;28;20045;-71
2023/11/12 01:20:00;;;;;;;1.83;1.33;;;;;;;5.76;94.88;150117.44;10322925;28;20113;-71
2023/11/12 01:25:02;;;;;;;2.10;1.10;;;;;;;5.75;94.96;150116.09;10338751;28;20082;-74
2023/11/12 01:30:05;;;;;;;2.40;1.20;;;;;;;5.73;93.93;150110.97;10332939;28;20058;-74
2023/11/12 01:35:07;;;;;;;1.35;1.20;;;;;;;5.82;94.39;150134.13;10333259;28;20056;-74
2023/11/12 01:40:11;;;;;;;1.90;1.35;;;;;;;5.82;93.56;150134.13;10334130;28;20046;-74
2023/11/12 01:45:14;;;;;;;1.65;1.33;;;;;;;5.67;93.88;150094.28;10334368;28;20058;-74
2023/11/12 01:50:20;;;;;;;1.27;1.13;;;;;;;5.81;92.50;150131.56;10334428;28;20050;-74
2023/11/12 01:55:25;;;;;;;1.17;1.08;;;;;;;5.71;93.62;150104.53;10333969;28;20046;-74
2023/11/12 02:00:27;;;;;;;1.58;1.35;;;;;;;5.81;91.85;150131.56;10332447;28;20046;-74
2023/11/12 02:05:29;;;;;;;1.48;1.38;;;;;;;5.81;92.89;150130.28;10316336;28;20049;-74
2023/11/12 02:10:35;;;;;;;1.20;1.10;;;;;;;5.83;92.57;150135.41;10337028;28;20050;-74
2023/11/12 02:15:37;;;;;;;1.63;1.30;;;;;;;5.88;92.29;150147.00;10342339;28;20125;-74
2023/11/12 02:20:46;;;;;;;1.83;1.23;;;;;;;5.83;92.37;150135.41;10342675;28;20065;-74
2023/11/12 02:25:48;;;;;;;1.98;1.40;;;;;;;5.76;92.16;150117.44;10341471;28;20490;-74
2023/11/12 02:30:54;;;;;;;1.58;1.20;;;;;;;5.77;92.29;150120.00;10341429;28;20073;-74
2023/11/12 02:35:56;;;;;;;1.67;1.58;;;;;;;5.81;90.78;150130.28;10340957;28;20422;-75
2023/11/12 02:41:00;;;;;;;1.42;1.27;;;;;;;5.79;91.12;150125.13;10341234;28;20182;-74
2023/11/12 02:46:04;;;;;;;3.83;1.55;;;;;;;5.91;89.69;150154.72;10339959;28;20070;-74
2023/11/12 02:51:06;;;;;;;1.73;1.45;;;;;;;5.91;89.35;150156.00;10340701;28;20046;-74
2023/11/12 02:56:08;;;;;;;2.13;1.38;;;;;;;5.80;90.94;150127.72;10338915;28;20047;-74
2023/11/12 03:01:10;;;;;;;1.88;1.40;;;;;;;5.90;89.89;150153.44;10338863;28;20371;-74
2023/11/12 03:06:12;;;;;;;1.80;1.23;;;;;;;5.83;90.73;150135.41;10338380;28;20050;-74
2023/11/12 03:11:14;;;;;;;2.13;1.55;;;;;;;5.86;89.40;150143.16;10340744;28;20047;-74
2023/11/12 03:16:15;;;;;;;1.50;1.40;;;;;;;5.79;89.79;150125.13;10321733;28;20042;-74
2023/11/12 03:21:18;;;;;;;1.67;1.58;;;;;;;5.89;88.55;150150.88;10339168;28;20493;-74
2023/11/12 03:26:20;;;;;;;1.20;1.10;;;;;;;5.91;87.83;150154.72;10337411;28;20417;-74
2023/11/12 03:31:21;;;;;;;1.88;1.10;;;;;;;5.89;87.64;150150.88;10338586;28;20489;-74
2023/11/12 03:36:23;;;;;;;1.65;1.23;;;;;;;5.93;87.42;150159.91;10336912;28;20057;-74
2023/11/12 03:41:25;;;;;;;1.40;1.30;;;;;;;5.73;88.80;150109.69;10337442;28;20482;-74
2023/11/12 03:46:27;;;;;;;2.10;1.25;;;;;;;5.81;88.23;150130.28;10338208;28;20574;-74
2023/11/12 03:51:29;;;;;;;1.98;1.55;;;;;;;5.86;87.33;150143.16;10339133;28;20426;-74
2023/11/12 03:56:31;;;;;;;1.42;1.10;;;;;;;5.74;87.94;150113.53;10338670;28;20042;-74
2023/11/12 04:01:32;;;;;;;1.40;1.30;;;;;;;5.59;88.92;150073.69;10336259;28;20085;-74
2023/11/12 04:06:34;;;;;;;1.52;1.10;;;;;;;5.77;88.00;150121.28;10336279;28;20540;-76
2023/11/12 04:11:38;;;;;;;1.55;1.45;;;;;;;5.73;88.04;150109.69;10337001;28;20046;-74
2023/11/12 04:16:40;;;;;;;1.15;1.05;;;;;;;5.74;88.46;150112.25;10335333;28;20042;-74
2023/11/12 04:21:46;;;;;;;1.40;1.30;;;;;;;5.80;87.83;150129.00;10336978;28;20046;-74
2023/11/12 04:26:48;;;;;;;2.00;1.25;;;;;;;5.72;89.48;150108.41;10337057;28;20042;-74
2023/11/12 04:31:50;;;;;;;1.55;1.38;;;;;;;5.89;87.51;150150.88;10335892;28;20050;-74
2023/11/12 04:36:51;;;;;;;1.50;1.25;;;;;;;5.73;89.67;150109.69;10336298;28;20042;-74
2023/11/12 04:41:53;;;;;;;1.83;1.60;;;;;;;5.91;89.63;150156.00;10335513;28;20042;-74
2023/11/12 04:46:55;;;;;;;1.38;1.27;;;;;;;5.78;90.97;150123.84;10335472;28;20062;-74
2023/11/12 04:51:57;;;;;;;1.70;1.60;;;;;;;5.81;91.68;150130.28;10335378;28;20050;-74
2023/11/12 04:56:58;;;;;;;2.28;1.38;;;;;;;5.72;93.10;150107.13;10335235;28;20045;-74
2023/11/12 05:02:00;;;;;;;1.60;1.50;;;;;;;5.67;93.53;150094.28;10335057;28;20498;-74
2023/11/12 05:07:02;;;;;;;1.42;1.33;;;;;;;5.68;93.60;150096.84;10335108;28;20414;-74
2023/11/12 05:12:04;;;;;;;2.20;2.00;;;;;;;5.67;93.98;150094.28;10334873;28;20137;-74
2023/11/12 05:17:06;;;;;;;1.83;1.67;;;;;;;5.76;94.21;150117.44;10333165;28;20042;-74
2023/11/12 05:22:08;;;;;;;2.20;1.70;;;;;;;5.80;92.48;150127.72;10334984;28;20081;-73
2023/11/12 05:27:09;;;;;;;2.20;1.60;;;;;;;5.71;94.72;150104.53;10334334;28;20516;-75
2023/11/12 05:32:11;;;;;;;1.40;1.30;;;;;;;5.77;92.92;150121.28;10334703;28;20049;-74
2023/11/12 05:37:13;;;;;;;2.03;1.67;;;;;;;5.79;92.83;150126.41;10334446;28;20073;-74
2023/11/12 05:42:15;;;;;;;1.55;1.45;;;;;;;5.71;92.35;150105.84;10333679;28;20121;-74
2023/11/12 05:47:16;;;;;;;1.40;1.30;;;;;;;5.79;92.16;150125.13;10334266;28;20122;-74
2023/11/12 05:52:18;;;;;;;2.28;1.42;;;;;;;5.89;89.96;150149.56;10333971;28;20074;-74
2023/11/12 05:57:20;;;;;;;1.55;1.45;;;;;;;5.63;93.00;150084.00;10333409;28;20484;-75
2023/11/12 06:02:22;;;;;;;1.83;1.52;;;;;;;5.55;93.89;150065.97;10333970;28;20058;-75
2023/11/12 06:07:23;;;;;;;1.58;1.48;;;;;;;5.61;93.26;150080.09;10334578;28;20114;-75
2023/11/12 06:12:25;;;;;;;1.60;1.50;;;;;;;5.79;89.82;150126.41;10334004;28;20049;-74
2023/11/12 06:17:27;;;;;;;1.65;1.42;;;;;;;5.71;91.55;150105.84;10333465;28;20446;-74
2023/11/12 06:22:29;;;;;;;2.13;1.60;;;;;;;5.69;91.22;150100.69;10333135;28;20076;-74
2023/11/12 06:27:31;;;;;;;1.52;1.42;;;;;;;5.70;90.39;150101.97;10333208;28;20062;-74
2023/11/12 06:32:35;;;;;;;2.88;1.45;;;;;;;5.55;92.75;150065.97;10333135;28;20107;-74
2023/11/12 06:37:37;;;;;;;1.50;1.40;;;;;;;5.72;90.01;150107.13;10331420;28;20056;-73
2023/11/12 06:42:43;;;;;;;2.42;1.45;;;;;;;5.71;91.37;150105.84;10333239;28;20081;-74
2023/11/12 06:47:45;;;;;;;1.88;1.40;;;;;;;5.88;89.40;150147.00;10332921;28;20425;-74
2023/11/12 06:52:47;;;;;;;1.40;1.30;;;;;;;5.95;88.90;150165.06;10333565;28;20457;-74
2023/11/12 06:57:48;;;;;;;1.92;1.60;;;;;;;5.80;91.39;150127.72;10339795;28;20470;-74
2023/11/12 07:02:50;;;;;;;1.42;1.20;;;;;;;6.10;87.63;150203.63;10339593;28;20399;-73
2023/11/12 07:07:52;;;;;;;2.15;1.27;;;;;;;5.96;89.11;150168.91;10341437;28;20057;-73
2023/11/12 07:12:54;;;;;;;2.92;1.55;;;;;;;5.94;89.83;150163.78;10339885;28;20497;-73
2023/11/12 07:17:56;;;;;;;1.55;1.30;;;;;;;5.97;88.86;150171.47;10338831;28;20465;-74
2023/11/12 07:23:01;;;;;;;1.70;1.52;;;;;;;6.06;88.01;150193.34;10340249;28;20133;-73
2023/11/12 07:28:03;;;;;;;1.35;1.25;;;;;;;5.91;89.46;150154.72;10339683;28;20100;-73
2023/11/12 07:33:08;;;;;;;2.13;1.40;;;;;;;5.95;88.83;150165.06;10337278;28;20046;-73
2023/11/12 07:38:10;;;;;;;1.35;1.25;;;;;;;6.05;89.21;150192.06;10339175;28;20046;-73
2023/11/12 07:43:12;;;;;;;1.67;1.20;;;;;;;6.11;87.94;150206.25;10337796;28;20050;-73
2023/11/12 07:48:14;;;;;;;2.28;1.50;;;;;;;6.32;86.40;150258.97;10337552;28;20050;-73
2023/11/12 07:53:16;;;;;;;1.60;1.38;;;;;;;6.35;87.09;150265.44;10338540;28;20038;-73
2023/11/12 07:58:18;;;;;;;2.00;1.15;;;;;;;6.36;85.94;150269.28;10337848;28;20443;-72
2023/11/12 08:03:20;;;;;;;2.90;1.42;;;;;;;6.39;86.97;150275.72;10337353;28;20133;-72
2023/11/12 08:08:26;;;;;;;2.85;1.50;;;;;;;6.66;85.50;150343.94;10335420;28;20074;-72
2023/11/12 08:13:28;;;;;;;1.33;1.23;;;;;;;6.87;83.13;150396.75;10337411;28;20465;-71
2023/11/12 08:18:30;;;;;;;1.55;1.35;;;;;;;6.87;83.62;150398.03;10339805;28;20421;-73
2023/11/12 08:23:32;;;;;;;3.83;1.20;;;;;;;6.89;82.19;150403.16;10341011;28;20125;-72
2023/11/12 08:28:34;;;;;;;4.03;1.50;;;;;;;6.80;82.69;150381.25;10337275;28;20050;-72
2023/11/12 08:33:37;;;;;;;2.00;1.50;;;;;;;6.67;85.44;150347.78;10337244;28;20129;-73
2023/11/12 08:38:39;;;;;;;1.50;1.40;;;;;;;6.72;85.24;150360.66;10335776;28;20051;-72
2023/11/12 08:43:45;;;;;;;1.75;1.65;;;;;;;7.11;82.77;150457.22;10339647;28;20042;-72
2023/11/12 08:48:47;;;;;;;1.55;1.45;;;;;;;7.12;81.15;150461.06;10339488;28;20053;-72
2023/11/12 08:53:49;;;;;;;1.30;1.20;;;;;;;7.24;80.72;150492.00;10340938;28;20098;-72
2023/11/12 08:58:52;;;;;;;1.40;1.30;;;;;;;7.30;79.44;150507.47;10339501;28;20050;-71
2023/11/12 09:03:54;;;;;;;1.42;1.33;;;;;;;7.17;82.51;150472.66;10340975;28;20105;-72
2023/11/12 09:08:56;;;;;;;2.03;1.27;;;;;;;7.05;79.59;150444.38;10337621;28;20118;-72
2023/11/12 09:14:00;;;;;;;2.22;1.30;;;;;;;7.51;76.51;150558.97;10337499;28;20062;-72
2023/11/12 09:19:05;;;;;;;1.38;1.20;;;;;;;7.53;76.24;150564.16;10338960;28;20509;-73
2023/11/12 09:24:08;;;;;;;1.50;1.33;;;;;;;7.32;78.53;150511.31;10342836;28;20038;-72
2023/11/12 09:29:10;;;;;;;2.05;1.55;;;;;;;7.57;75.44;150575.75;10346852;28;20050;-72
2023/11/12 09:34:12;;;;;;;1.83;1.20;;;;;;;7.47;76.34;150548.66;10354796;28;20073;-72
2023/11/12 09:39:15;;;;;;;1.50;1.40;;;;;;;7.64;73.77;150592.47;10346785;28;20085;-72
2023/11/12 09:44:20;;;;;;;2.35;1.52;;;;;;;7.50;75.42;150556.41;10376202;28;20092;-73
2023/11/12 09:49:22;;;;;;;1.45;1.35;;;;;;;7.61;75.44;150584.72;10338337;28;20050;-73
2023/11/12 09:54:25;;;;;;;1.42;1.05;;;;;;;7.82;74.51;150638.84;10332531;28;20038;-72
2023/11/12 09:59:26;;;;;;;1.50;1.20;;;;;;;7.80;75.19;150632.44;10334639;28;20053;-72
2023/11/12 10:04:28;;;;;;;1.88;1.23;;;;;;;7.94;72.63;150667.22;10344596;28;20038;-72
2023/11/12 10:09:31;;;;;;;2.15;1.30;;;;;;;7.89;73.70;150654.31;10336347;28;20053;-72
2023/11/12 10:14:33;;;;;;;1.98;1.00;;;;;;;7.89;72.90;150654.31;10336570;28;20038;-72
2023/11/12 10:19:35;;;;;;;1.35;1.10;;;;;;;7.98;72.50;150678.81;10338538;28;20046;-72
2023/11/12 10:24:44;;;;;;;5.70;1.42;;;;;;;7.92;72.49;150662.03;10336177;28;20043;-72
2023/11/12 10:29:47;;;;;;;1.63;1.10;;;;;;;8.31;69.29;150761.25;10339909;28;20043;-73
2023/11/12 10:34:49;;;;;;;1.10;1.00;;;;;;;8.42;70.76;150788.41;10342534;28;20069;-73
2023/11/12 10:39:52;;;;;;;1.60;0.90;;;;;;;8.94;69.27;150921.22;10341380;28;20042;-72
2023/11/12 10:44:56;;;;;;;0.95;0.85;;;;;;;10.03;62.80;151195.97;10341471;28;20050;-72
2023/11/12 10:49:59;;;;;;;0.80;0.80;;;;;;;9.43;64.60;151043.69;10343199;28;20581;-74
2023/11/12 10:55:05;;;;;;;1.15;0.80;;;;;;;9.05;64.34;150949.56;10341379;28;20057;-73
2023/11/12 11:00:11;;;;;;;0.70;0.70;;;;;;;8.98;65.58;150930.19;10343112;28;20050;-73
2023/11/12 11:05:13;;;;;;;0.75;0.70;;;;;;;9.19;62.70;150984.38;10341376;28;20113;-73
2023/11/12 11:10:16;;;;;;;0.98;0.88;;;;;;;9.09;62.84;150959.88;10323220;28;20058;-73
2023/11/12 11:15:44;;;;;;;2.35;0.90;;;;;;;9.09;64.75;150958.59;10341128;28;20042;-73
2023/11/12 11:21:13;;;;;;;1.60;0.88;;;;;;;9.03;63.25;150944.44;10342050;28;20057;-73
2023/11/12 11:26:24;;;;;;;0.57;0.50;;;;;;;8.70;63.08;150859.28;10339465;28;20104;-72
2023/11/12 11:31:26;;;;;;;0.68;0.50;;;;;;;8.46;62.81;150798.72;10341280;28;20057;-72
2023/11/12 11:36:28;;;;;;;0.57;0.40;;;;;;;8.64;62.30;150845.13;10340812;28;20395;-72
2023/11/12 11:41:35;;;;;;;0.60;0.60;;;;;;;8.60;64.63;150834.81;10342906;28;20046;-73
2023/11/12 11:47:09;;;;;;;0.82;0.60;;;;;;;8.61;63.34;150837.38;10346119;28;20046;-72
2023/11/12 11:52:17;;;;;;;1.73;0.77;;;;;;;8.46;63.06;150800.00;10349345;28;20048;-73
2023/11/12 11:57:23;;;;;;;0.90;0.70;;;;;;;8.54;64.88;150820.66;10357470;28;20058;-72
2023/11/12 12:02:25;;;;;;;0.50;0.50;;;;;;;8.76;61.01;150876.03;10348683;28;20050;-72
2023/11/12 12:07:31;;;;;;;0.47;0.40;;;;;;;8.66;60.29;150850.25;10341340;28;20047;-72
2023/11/12 12:12:36;;;;;;;0.75;0.50;;;;;;;8.70;58.84;150859.28;10330123;28;20073;-72
2023/11/12 12:17:39;;;;;;;0.30;0.30;;;;;;;8.62;60.73;150839.94;10338587;28;20046;-72
2023/11/12 12:22:42;;;;;;;0.47;0.30;;;;;;;8.73;59.66;150868.34;10337776;28;20046;-73
2023/11/12 12:27:52;;;;;;;0.50;0.40;;;;;;;8.65;59.24;150847.69;10361531;28;20042;-73
2023/11/12 12:32:54;;;;;;;0.50;0.40;;;;;;;8.66;58.39;150850.25;10381606;28;20054;-72
2023/11/12 12:38:06;;;;;;;0.47;0.38;;;;;;;8.70;58.75;150860.59;10353860;28;20097;-73
2023/11/12 12:43:10;;;;;;;0.50;0.40;;;;;;;8.86;59.85;150899.28;10339941;28;20120;-73
2023/11/12 12:48:14;;;;;;;0.50;0.32;;;;;;;8.74;60.68;150870.91;10338337;28;20039;-73
2023/11/12 12:53:22;;;;;;;0.40;0.40;;;;;;;8.88;58.91;150904.44;10337501;28;20124;-73
2023/11/12 12:58:37;;;;;;;0.88;0.50;;;;;;;9.12;58.73;150966.34;10337481;28;20061;-73
2023/11/12 13:03:41;;;;;;;0.95;0.30;;;;;;;9.06;56.98;150950.84;10373779;28;20041;-73
2023/11/12 13:08:47;;;;;;;0.40;0.40;;;;;;;8.94;56.09;150919.88;10375497;28;20093;-74
2023/11/12 13:13:50;;;;;;;0.65;0.25;;;;;;;8.77;59.22;150878.66;10336871;28;20498;-73
2023/11/12 13:18:52;;;;;;;0.50;0.40;;;;;;;8.80;57.34;150885.06;10338146;28;20073;-73
2023/11/12 13:23:54;;;;;;;0.20;0.20;;;;;;;8.81;58.00;150887.69;10338157;28;20054;-72
2023/11/12 13:28:56;;;;;;;0.55;0.40;;;;;;;8.67;58.78;150851.53;10339842;28;20101;-73
2023/11/12 13:33:58;;;;;;;0.63;0.40;;;;;;;8.84;56.86;150895.38;10338387;28;20038;-74
2023/11/12 13:39:01;;;;;;;0.32;0.32;;;;;;;8.44;58.94;150793.53;10338876;28;20042;-74
2023/11/12 13:44:05;;;;;;;0.80;0.28;;;;;;;8.42;58.88;150788.41;10338487;28;20092;-74
2023/11/12 13:49:07;;;;;;;0.50;0.30;;;;;;;8.64;56.30;150843.84;10335693;28;20062;-73
2023/11/12 13:54:10;;;;;;;0.65;0.30;;;;;;;8.61;54.73;150837.38;10334748;28;20141;-73
2023/11/12 13:59:12;;;;;;;1.00;0.20;;;;;;;8.65;54.12;150847.69;10335928;28;20137;-74
2023/11/12 14:04:14;;;;;;;0.22;0.22;;;;;;;8.64;54.90;150843.84;10337339;28;20042;-73
2023/11/12 14:09:17;;;;;;;1.00;0.30;;;;;;;8.57;54.56;150828.34;10343979;28;20074;-73
2023/11/12 14:14:20;;;;;;;0.47;0.30;;;;;;;8.35;56.58;150771.59;10343236;28;20378;-73
2023/11/12 14:19:27;;;;;;;0.98;0.30;;;;;;;8.29;54.53;150757.41;10343518;28;20042;-73
2023/11/12 14:24:29;;;;;;;0.60;0.20;;;;;;;8.24;55.41;150744.53;10343739;28;20047;-73
2023/11/12 14:29:31;;;;;;;0.25;0.20;;;;;;;8.13;56.68;150714.88;10343918;28;20058;-73
2023/11/12 14:34:34;;;;;;;0.22;0.22;;;;;;;8.06;58.49;150698.16;10346010;28;20042;-73
2023/11/12 14:39:37;;;;;;;1.40;0.43;;;;;;;8.10;58.58;150708.41;10342568;28;20060;-73
2023/11/12 14:44:39;;;;;;;0.50;0.32;;;;;;;7.97;55.82;150674.91;10341761;28;20039;-73
2023/11/12 14:49:41;;;;;;;0.70;0.55;;;;;;;8.06;55.99;150699.44;10341338;28;20156;-72
2023/11/12 14:54:46;;;;;;;0.93;0.30;;;;;;;7.92;55.18;150662.03;10341477;28;20065;-72
2023/11/12 14:59:48;;;;;;;0.68;0.43;;;;;;;7.91;56.27;150659.47;10345198;28;20128;-72
2023/11/12 15:04:50;;;;;;;0.95;0.40;;;;;;;7.90;54.16;150658.19;10345530;28;20034;-73
2023/11/12 15:09:52;;;;;;;0.65;0.50;;;;;;;7.79;55.14;150629.81;10343168;28;20057;-72
2023/11/12 15:14:54;;;;;;;0.88;0.47;;;;;;;7.76;56.76;150623.41;10344992;28;20054;-72
2023/11/12 15:19:57;;;;;;;0.60;0.50;;;;;;;7.85;56.26;150645.31;10346578;28;20058;-73
2023/11/12 15:24:58;;;;;;;0.40;0.40;;;;;;;7.69;57.54;150605.34;10340656;28;20442;-72
2023/11/12 15:30:05;;;;;;;0.50;0.50;;;;;;;7.38;60.59;150526.75;10340017;28;20096;-73
2023/11/12 15:35:08;;;;;;;1.43;0.70;;;;;;;7.16;61.42;150471.38;10341595;28;20073;-73
2023/11/12 15:40:17;;;;;;;0.60;0.55;;;;;;;7.03;64.23;150437.91;10356919;28;20042;-73
2023/11/12 15:45:23;;;;;;;0.52;0.45;;;;;;;7.20;65.40;150480.41;10361463;28;20124;-73
2023/11/12 15:50:30;;;;;;;0.73;0.53;;;;;;;7.14;65.72;150464.97;10378790;28;20060;-72
2023/11/12 15:55:32;;;;;;;0.88;0.68;;;;;;;7.13;66.48;150462.34;10345691;28;20402;-73
2023/11/12 16:00:34;;;;;;;2.42;1.15;;;;;;;7.08;67.83;150452.09;10340662;28;20061;-73
2023/11/12 16:05:37;;;;;;;2.55;1.83;;;;;;;6.96;68.00;150419.91;10339647;28;20046;-73
2023/11/12 16:10:40;;;;;;;3.35;1.70;;;;;;;6.97;68.71;150423.75;10361105;28;20088;-73
2023/11/12 16:15:43;;;;;;;1.92;1.33;;;;;;;6.95;68.99;150417.28;10381845;28;20112;-73
2023/11/12 16:20:45;;;;;;;1.45;1.30;;;;;;;7.04;67.36;150440.53;10380905;28;20045;-74
2023/11/12 16:25:48;;;;;;;2.20;1.10;;;;;;;7.07;66.90;150449.50;10382666;28;20505;-73
2023/11/12 16:30:50;;;;;;;2.10;1.50;;;;;;;6.97;67.95;150423.75;10384427;28;20056;-73
2023/11/12 16:35:52;;;;;;;2.08;1.65;;;;;;;7.06;67.07;150445.66;10385036;28;20117;-74
2023/11/12 16:40:54;;;;;;;3.13;1.75;;;;;;;7.02;68.05;150436.63;10384348;28;20053;-73
2023/11/12 16:45:56;;;;;;;2.67;1.70;;;;;;;7.12;67.53;150459.78;10387468;28;20076;-73
2023/11/12 16:50:58;;;;;;;3.13;1.80;;;;;;;7.08;68.43;150450.78;10387310;28;20038;-73
2023/11/12 16:56:02;;;;;;;2.50;1.27;;;;;;;7.16;68.31;150470.09;10384631;28;20042;-73
2023/11/12 17:01:04;;;;;;;1.90;1.20;;;;;;;7.12;69.19;150461.06;10378199;28;20446;-73
2023/11/12 17:06:06;;;;;;;1.65;1.10;;;;;;;6.99;69.83;150427.59;10378527;28;20038;-73
2023/11/12 17:11:10;;;;;;;1.35;1.00;;;;;;;7.04;68.96;150440.53;10375740;28;20045;-74
2023/11/12 17:16:12;;;;;;;2.00;1.00;;;;;;;6.91;70.80;150407.03;10376486;28;20065;-74
2023/11/12 17:21:14;;;;;;;1.85;1.02;;;;;;;6.85;71.18;150392.84;10376391;28;20038;-72
2023/11/12 17:26:16;;;;;;;1.63;1.30;;;;;;;6.96;70.15;150421.19;10376669;28;20148;-73
2023/11/12 17:31:18;;;;;;;1.50;1.10;;;;;;;6.73;72.47;150363.25;10375649;28;20045;-73
2023/11/12 17:36:21;;;;;;;2.42;1.25;;;;;;;6.63;72.70;150337.47;10375944;28;20048;-73
2023/11/12 17:41:24;;;;;;;1.30;1.10;;;;;;;6.83;73.23;150387.72;10376885;28;20112;-73
2023/11/12 17:46:26;;;;;;;1.98;1.27;;;;;;;6.78;73.39;150374.84;10375289;28;20041;-74
2023/11/12 17:51:28;;;;;;;2.10;1.88;;;;;;;6.52;75.02;150310.47;10376132;28;20050;-74
2023/11/12 17:56:30;;;;;;;2.67;1.60;;;;;;;6.44;75.25;150289.88;10375343;28;20038;-73
2023/11/12 18:01:32;;;;;;;2.83;2.08;;;;;;;6.66;75.58;150345.22;10376964;28;20046;-73
2023/11/12 18:06:35;;;;;;;1.65;1.55;;;;;;;6.62;75.31;150333.63;10375939;28;20049;-74
2023/11/12 18:11:37;;;;;;;2.25;1.65;;;;;;;6.56;75.78;150320.78;10372515;28;20053;-74
2023/11/12 18:16:39;;;;;;;2.08;1.52;;;;;;;6.60;75.59;150328.47;10358424;28;20039;-74
2023/11/12 18:21:41;;;;;;;2.45;1.70;;;;;;;6.55;77.46;150318.22;10352432;28;20034;-74
2023/11/12 18:26:43;;;;;;;2.35;1.98;;;;;;;6.46;77.50;150293.72;10377517;28;20048;-74
2023/11/12 18:31:47;;;;;;;2.70;2.30;;;;;;;6.77;75.08;150372.22;10349666;28;20050;-74
2023/11/12 18:36:49;;;;;;;4.03;1.95;;;;;;;6.88;73.90;150399.31;10318199;28;20054;-73
2023/11/12 18:41:51;;;;;;;3.28;2.28;;;;;;;6.86;73.09;150395.41;10334390;28;20061;-74
2023/11/12 18:46:53;;;;;;;3.58;2.47;;;;;;;6.48;75.41;150298.91;10345035;28;20048;-73
2023/11/12 18:52:01;;;;;;;2.88;1.92;;;;;;;6.50;74.28;150305.31;10378850;28;20050;-73
2023/11/12 18:57:03;;;;;;;2.03;1.65;;;;;;;6.49;74.14;150302.75;10381468;28;20129;-74
2023/11/12 19:02:05;;;;;;;2.63;1.88;;;;;;;6.62;72.70;150333.63;10382956;28;20108;-73
2023/11/12 19:07:14;;;;;;;3.75;2.13;;;;;;;6.82;70.09;150386.44;10381875;28;20042;-73
2023/11/12 19:12:16;;;;;;;2.45;2.13;;;;;;;6.70;70.86;150354.25;10380441;28;20494;-73
2023/11/12 19:17:18;;;;;;;3.45;1.83;;;;;;;6.67;70.94;150347.78;10382286;28;20042;-73
2023/11/12 19:22:20;;;;;;;2.75;1.90;;;;;;;6.82;71.10;150386.44;10383595;28;20124;-73
2023/11/12 19:27:26;;;;;;;2.70;1.95;;;;;;;6.84;70.96;150390.28;10382014;28;20038;-74
2023/11/12 19:32:28;;;;;;;2.40;1.87;;;;;;;6.67;71.57;150346.50;10380877;28;20101;-73
2023/11/12 19:37:32;;;;;;;3.65;1.60;;;;;;;6.70;70.66;150355.53;10397510;22;20361;-72
2023/11/12 19:42:34;;;;;;;1.90;1.50;;;;;;;6.56;70.84;150319.50;10382654;28;20531;-73
2023/11/12 19:47:36;;;;;;;2.33;1.80;;;;;;;6.64;70.17;150338.75;10383377;28;20092;-73
2023/11/12 19:52:38;;;;;;;3.70;2.00;;;;;;;6.74;69.40;150364.53;10381664;28;20045;-73
2023/11/12 19:57:40;;;;;;;4.65;2.13;;;;;;;6.57;70.75;150322.06;10381576;28;20042;-72
2023/11/12 20:02:42;;;;;;;2.45;1.83;;;;;;;6.72;69.43;150359.38;10381151;28;20042;-73
2023/11/12 20:07:44;;;;;;;4.05;1.75;;;;;;;6.57;70.64;150322.06;10381978;28;20470;-73
2023/11/12 20:12:49;;;;;;;3.13;1.90;;;;;;;6.57;70.35;150323.34;10384327;28;20103;-73
2023/11/12 20:17:51;;;;;;;1.80;1.13;;;;;;;6.48;70.38;150300.19;10382745;28;20038;-73
2023/11/12 20:22:54;;;;;;;2.97;1.50;;;;;;;6.48;70.84;150300.19;10381170;28;20049;-73
2023/11/12 20:27:56;;;;;;;2.25;1.20;;;;;;;6.82;66.67;150386.44;10380232;28;20038;-72
2023/11/12 20:33:00;;;;;;;1.80;1.20;;;;;;;6.85;66.25;150392.84;10384268;28;20038;-73
2023/11/12 20:38:04;;;;;;;0.60;0.60;;;;;;;6.98;64.02;150425.03;10379766;28;20042;-72
2023/11/12 20:43:10;;;;;;;0.52;0.50;;;;;;;7.00;62.56;150430.22;10381388;28;20047;-73
2023/11/12 20:48:16;;;;;;;1.58;0.57;;;;;;;6.81;63.87;150383.81;10380484;28;20042;-73
2023/11/12 20:53:18;;;;;;;0.70;0.63;;;;;;;6.77;64.42;150373.56;10382635;28;20069;-74
2023/11/12 20:58:21;;;;;;;0.60;0.60;;;;;;;6.87;63.46;150398.03;10381269;28;20038;-73
2023/11/12 21:03:24;;;;;;;1.60;0.80;;;;;;;6.98;63.47;150425.03;10380579;28;20472;-73
2023/11/12 21:08:27;;;;;;;1.00;0.70;;;;;;;6.95;63.93;150417.28;10383238;28;20041;-73
2023/11/12 21:13:29;;;;;;;1.33;0.88;;;;;;;6.94;63.74;150416.00;10383130;28;20381;-73
2023/11/12 21:18:31;;;;;;;1.35;0.70;;;;;;;6.80;64.90;150379.97;10381167;28;20500;-73
2023/11/12 21:23:34;;;;;;;2.25;0.88;;;;;;;6.90;64.01;150404.44;10380338;28;20505;-72
2023/11/12 21:28:36;;;;;;;1.30;0.70;;;;;;;6.94;63.72;150416.00;10379707;28;20435;-73
2023/11/12 21:33:38;;;;;;;1.20;0.60;;;;;;;6.95;63.69;150417.28;10378577;28;20109;-73
2023/11/12 21:38:41;;;;;;;1.25;0.70;;;;;;;6.96;64.06;150421.19;10378912;28;20045;-74
2023/11/12 21:43:43;;;;;;;1.25;0.70;;;;;;;6.81;65.15;150382.53;10380362;28;20104;-73
2023/11/12 21:48:47;;;;;;;1.65;1.00;;;;;;;6.68;65.48;150350.34;10380115;28;20052;-73
2023/11/12 21:53:49;;;;;;;1.15;0.80;;;;;;;6.73;64.91;150361.94;10380940;28;20390;-74
2023/11/12 21:58:51;;;;;;;1.30;0.57;;;;;;;6.86;64.60;150394.13;10377567;28;20046;-72
2023/11/12 22:03:53;;;;;;;0.70;0.60;;;;;;;6.93;63.74;150413.44;10376445;28;20051;-72
2023/11/12 22:08:55;;;;;;;0.60;0.50;;;;;;;6.80;65.05;150379.97;10376806;28;20046;-72
2023/11/12 22:13:57;;;;;;;2.35;0.82;;;;;;;6.89;63.87;150403.16;10377137;28;20073;-74
2023/11/12 22:18:59;;;;;;;1.25;0.80;;;;;;;6.83;64.27;150389.00;10379184;28;20038;-72
2023/11/12 22:24:02;;;;;;;1.92;0.60;;;;;;;6.90;63.84;150405.72;10376530;28;20590;-74
2023/11/12 22:29:04;;;;;;;0.82;0.70;;;;;;;6.76;64.19;150369.66;10383859;28;20038;-72
2023/11/12 22:34:06;;;;;;;0.50;0.50;;;;;;;6.75;64.37;150367.09;10382652;28;20053;-72
2023/11/12 22:39:08;;;;;;;1.20;0.70;;;;;;;6.61;65.34;150331.06;10383516;28;20056;-73
2023/11/12 22:44:10;;;;;;;1.70;0.47;;;;;;;6.68;64.66;150350.34;10384293;28;20104;-73
2023/11/12 22:49:12;;;;;;;0.95;0.63;;;;;;;6.70;64.73;150355.53;10382623;28;20069;-73
2023/11/12 22:54:14;;;;;;;0.90;0.68;;;;;;;6.69;64.86;150351.69;10381164;28;20115;-72
2023/11/12 22:59:16;;;;;;;0.50;0.50;;;;;;;6.81;64.78;150383.81;10383480;28;20088;-73
2023/11/12 23:04:18;;;;;;;0.90;0.70;;;;;;;6.64;66.03;150338.75;10382876;28;20049;-73
2023/11/12 23:09:26;;;;;;;0.73;0.60;;;;;;;6.68;65.54;150350.34;10382087;28;20379;-73
2023/11/12 23:14:29;;;;;;;0.65;0.55;;;;;;;6.46;67.07;150295.03;10381319;28;20042;-73
2023/11/12 23:19:30;;;;;;;0.98;0.63;;;;;;;6.57;65.96;150322.06;10379785;28;20042;-73
2023/11/12 23:24:32;;;;;;;0.50;0.40;;;;;;;6.64;65.81;150340.09;10363545;28;20046;-73
2023/11/12 23:29:35;;;;;;;1.33;0.52;;;;;;;6.58;65.69;150325.91;10380870;28;20481;-73